sensor_id;sensor_type;location;lat;lon;timestamp;P1;durP1;ratioP1;P2;durP2;ratioP2
4963;SDS011;2497;47.410;9.740;2022-11-03T00:01:05;4.03;;;2.30;;
4963;SDS011;2497;47.410;9.740;2022-11-03T00:03:32;16.23;;;2.70;;
4963;SDS011;2497;47.410;9.740;2022-11-03T00:06:00;2.70;;;1.50;;
4963;SDS011;2497;47.410;9.740;2022-11-03T00:08:30;3.17;;;1.63;;
4963;SDS011;2497;47.410;9.740;2022-11-03T00:11:06;2.67;;;1.87;;
4963;SDS011;2497;47.410;9.740;2022-11-03T00:13:34;3.33;;;2.00;;
4963;SDS011;2497;47.410;9.740;2022-11-03T00:16:03;4.10;;;2.60;;
4963;SDS011;2497;47.410;9.740;2022-11-03T00:18:33;3.17;;;1.43;;
4963;SDS011;2497;47.410;9.740;2022-11-03T00:21:02;2.70;;;1.73;;
4963;SDS011;2497;47.410;9.740;2022-11-03T00:23:31;3.20;;;2.50;;
4963;SDS011;2497;47.410;9.740;2022-11-03T00:26:04;2.43;;;1.80;;
4963;SDS011;2497;47.410;9.740;2022-11-03T00:28:33;3.10;;;2.23;;
4963;SDS011;2497;47.410;9.740;2022-11-03T00:31:00;3.00;;;2.10;;
4963;SDS011;2497;47.410;9.740;2022-11-03T00:33:33;1.40;;;1.30;;
4963;SDS011;2497;47.410;9.740;2022-11-03T00:36:01;2.40;;;1.70;;
4963;SDS011;2497;47.410;9.740;2022-11-03T00:38:30;2.93;;;1.90;;
4963;SDS011;2497;47.410;9.740;2022-11-03T00:40:58;2.07;;;1.40;;
4963;SDS011;2497;47.410;9.740;2022-11-03T00:43:30;5.77;;;1.90;;
4963;SDS011;2497;47.410;9.740;2022-11-03T00:45:59;3.03;;;2.13;;
4963;SDS011;2497;47.410;9.740;2022-11-03T00:48:27;2.03;;;1.17;;
4963;SDS011;2497;47.410;9.740;2022-11-03T00:51:00;5.10;;;2.33;;
4963;SDS011;2497;47.410;9.740;2022-11-03T00:53:28;6.30;;;2.07;;
4963;SDS011;2497;47.410;9.740;2022-11-03T00:55:57;3.00;;;1.77;;
4963;SDS011;2497;47.410;9.740;2022-11-03T00:58:24;2.40;;;1.30;;
4963;SDS011;2497;47.410;9.740;2022-11-03T01:00:57;4.87;;;2.00;;
4963;SDS011;2497;47.410;9.740;2022-11-03T01:03:25;2.17;;;1.40;;
4963;SDS011;2497;47.410;9.740;2022-11-03T01:05:53;1.43;;;1.30;;
4963;SDS011;2497;47.410;9.740;2022-11-03T01:08:39;2.27;;;1.10;;
4963;SDS011;2497;47.410;9.740;2022-11-03T01:11:08;1.60;;;1.30;;
4963;SDS011;2497;47.410;9.740;2022-11-03T01:13:50;3.63;;;1.67;;
4963;SDS011;2497;47.410;9.740;2022-11-03T01:16:17;3.57;;;1.83;;
4963;SDS011;2497;47.410;9.740;2022-11-03T01:18:44;2.37;;;2.17;;
4963;SDS011;2497;47.410;9.740;2022-11-03T01:21:12;1.37;;;1.23;;
4963;SDS011;2497;47.410;9.740;2022-11-03T01:23:41;2.63;;;1.93;;
4963;SDS011;2497;47.410;9.740;2022-11-03T01:26:10;1.30;;;1.20;;
4963;SDS011;2497;47.410;9.740;2022-11-03T01:28:39;3.30;;;1.50;;
4963;SDS011;2497;47.410;9.740;2022-11-03T01:31:08;5.90;;;3.03;;
4963;SDS011;2497;47.410;9.740;2022-11-03T01:33:37;2.23;;;2.03;;
4963;SDS011;2497;47.410;9.740;2022-11-03T01:36:06;2.13;;;1.93;;
4963;SDS011;2497;47.410;9.740;2022-11-03T01:38:34;1.40;;;1.27;;
4963;SDS011;2497;47.410;9.740;2022-11-03T01:41:05;1.23;;;1.13;;
4963;SDS011;2497;47.410;9.740;2022-11-03T01:43:36;1.70;;;1.30;;
4963;SDS011;2497;47.410;9.740;2022-11-03T01:46:05;2.53;;;1.60;;
4963;SDS011;2497;47.410;9.740;2022-11-03T01:48:41;2.90;;;1.87;;
4963;SDS011;2497;47.410;9.740;2022-11-03T01:51:12;6.10;;;1.43;;
4963;SDS011;2497;47.410;9.740;2022-11-03T01:53:43;3.43;;;1.20;;
4963;SDS011;2497;47.410;9.740;2022-11-03T01:56:15;1.53;;;1.43;;
4963;SDS011;2497;47.410;9.740;2022-11-03T01:58:44;2.07;;;1.23;;
4963;SDS011;2497;47.410;9.740;2022-11-03T02:01:15;14.03;;;2.03;;
4963;SDS011;2497;47.410;9.740;2022-11-03T02:03:44;2.07;;;1.30;;
4963;SDS011;2497;47.410;9.740;2022-11-03T02:06:15;2.60;;;1.20;;
4963;SDS011;2497;47.410;9.740;2022-11-03T02:08:45;2.17;;;1.70;;
4963;SDS011;2497;47.410;9.740;2022-11-03T02:11:16;1.30;;;1.20;;
4963;SDS011;2497;47.410;9.740;2022-11-03T02:14:01;1.40;;;1.13;;
4963;SDS011;2497;47.410;9.740;2022-11-03T02:16:29;1.30;;;1.13;;
4963;SDS011;2497;47.410;9.740;2022-11-03T02:18:58;3.07;;;2.03;;
4963;SDS011;2497;47.410;9.740;2022-11-03T02:21:28;1.50;;;1.23;;
4963;SDS011;2497;47.410;9.740;2022-11-03T02:24:01;4.23;;;1.90;;
4963;SDS011;2497;47.410;9.740;2022-11-03T02:26:38;11.00;;;2.13;;
4963;SDS011;2497;47.410;9.740;2022-11-03T02:29:07;3.00;;;1.83;;
4963;SDS011;2497;47.410;9.740;2022-11-03T02:31:37;2.17;;;1.60;;
4963;SDS011;2497;47.410;9.740;2022-11-03T02:34:10;1.87;;;1.43;;
4963;SDS011;2497;47.410;9.740;2022-11-03T02:36:42;2.67;;;1.83;;
4963;SDS011;2497;47.410;9.740;2022-11-03T02:39:13;6.73;;;1.40;;
4963;SDS011;2497;47.410;9.740;2022-11-03T02:41:47;1.20;;;1.10;;
4963;SDS011;2497;47.410;9.740;2022-11-03T02:44:17;1.27;;;0.90;;
4963;SDS011;2497;47.410;9.740;2022-11-03T02:46:46;4.17;;;2.37;;
4963;SDS011;2497;47.410;9.740;2022-11-03T02:49:18;2.30;;;0.93;;
4963;SDS011;2497;47.410;9.740;2022-11-03T02:51:46;2.80;;;1.23;;
4963;SDS011;2497;47.410;9.740;2022-11-03T02:54:13;2.87;;;1.73;;
4963;SDS011;2497;47.410;9.740;2022-11-03T02:56:51;3.43;;;3.13;;
4963;SDS011;2497;47.410;9.740;2022-11-03T02:59:22;1.57;;;1.13;;
4963;SDS011;2497;47.410;9.740;2022-11-03T03:01:53;1.43;;;1.33;;
4963;SDS011;2497;47.410;9.740;2022-11-03T03:04:26;1.67;;;1.20;;
4963;SDS011;2497;47.410;9.740;2022-11-03T03:06:56;2.70;;;1.63;;
4963;SDS011;2497;47.410;9.740;2022-11-03T03:09:30;1.30;;;0.90;;
4963;SDS011;2497;47.410;9.740;2022-11-03T03:12:02;1.40;;;1.10;;
4963;SDS011;2497;47.410;9.740;2022-11-03T03:14:33;1.63;;;1.37;;
4963;SDS011;2497;47.410;9.740;2022-11-03T03:17:04;2.67;;;1.33;;
4963;SDS011;2497;47.410;9.740;2022-11-03T03:19:38;1.60;;;1.30;;
4963;SDS011;2497;47.410;9.740;2022-11-03T03:22:13;3.70;;;1.90;;
4963;SDS011;2497;47.410;9.740;2022-11-03T03:24:48;2.23;;;1.20;;
4963;SDS011;2497;47.410;9.740;2022-11-03T03:27:22;1.63;;;1.53;;
4963;SDS011;2497;47.410;9.740;2022-11-03T03:29:53;1.80;;;1.33;;
4963;SDS011;2497;47.410;9.740;2022-11-03T03:32:24;3.57;;;1.73;;
4963;SDS011;2497;47.410;9.740;2022-11-03T03:34:55;2.20;;;1.80;;
4963;SDS011;2497;47.410;9.740;2022-11-03T03:37:24;2.87;;;2.03;;
4963;SDS011;2497;47.410;9.740;2022-11-03T03:39:54;5.57;;;1.73;;
4963;SDS011;2497;47.410;9.740;2022-11-03T03:42:28;1.30;;;0.97;;
4963;SDS011;2497;47.410;9.740;2022-11-03T03:44:58;1.37;;;1.27;;
4963;SDS011;2497;47.410;9.740;2022-11-03T03:47:27;1.30;;;1.20;;
4963;SDS011;2497;47.410;9.740;2022-11-03T03:49:56;4.23;;;1.80;;
4963;SDS011;2497;47.410;9.740;2022-11-03T03:52:24;2.03;;;1.30;;
4963;SDS011;2497;47.410;9.740;2022-11-03T03:54:53;1.80;;;1.27;;
4963;SDS011;2497;47.410;9.740;2022-11-03T03:57:22;2.23;;;1.80;;
4963;SDS011;2497;47.410;9.740;2022-11-03T03:59:53;1.30;;;1.20;;
4963;SDS011;2497;47.410;9.740;2022-11-03T04:02:21;4.13;;;3.07;;
4963;SDS011;2497;47.410;9.740;2022-11-03T04:04:48;4.00;;;2.77;;
4963;SDS011;2497;47.410;9.740;2022-11-03T04:07:16;2.60;;;2.10;;
4963;SDS011;2497;47.410;9.740;2022-11-03T04:10:00;6.20;;;1.83;;
4963;SDS011;2497;47.410;9.740;2022-11-03T04:12:28;3.50;;;2.70;;
4963;SDS011;2497;47.410;9.740;2022-11-03T04:15:23;2.90;;;1.40;;
4963;SDS011;2497;47.410;9.740;2022-11-03T04:18:08;1.37;;;1.23;;
4963;SDS011;2497;47.410;9.740;2022-11-03T04:20:53;2.80;;;1.80;;
4963;SDS011;2497;47.410;9.740;2022-11-03T04:23:37;1.87;;;1.27;;
4963;SDS011;2497;47.410;9.740;2022-11-03T04:26:05;3.60;;;1.83;;
4963;SDS011;2497;47.410;9.740;2022-11-03T04:28:38;1.50;;;1.33;;
4963;SDS011;2497;47.410;9.740;2022-11-03T04:31:10;1.80;;;1.60;;
4963;SDS011;2497;47.410;9.740;2022-11-03T04:33:39;2.93;;;1.70;;
4963;SDS011;2497;47.410;9.740;2022-11-03T04:36:09;2.10;;;1.90;;
4963;SDS011;2497;47.410;9.740;2022-11-03T04:38:40;2.63;;;1.80;;
4963;SDS011;2497;47.410;9.740;2022-11-03T04:41:11;1.80;;;1.37;;
4963;SDS011;2497;47.410;9.740;2022-11-03T04:43:40;15.40;;;1.80;;
4963;SDS011;2497;47.410;9.740;2022-11-03T04:46:10;2.83;;;2.40;;
4963;SDS011;2497;47.410;9.740;2022-11-03T04:48:41;1.70;;;1.03;;
4963;SDS011;2497;47.410;9.740;2022-11-03T04:51:13;1.40;;;1.30;;
4963;SDS011;2497;47.410;9.740;2022-11-03T04:53:45;6.73;;;1.23;;
4963;SDS011;2497;47.410;9.740;2022-11-03T04:56:16;1.60;;;1.33;;
4963;SDS011;2497;47.410;9.740;2022-11-03T04:58:47;1.90;;;1.47;;
4963;SDS011;2497;47.410;9.740;2022-11-03T05:01:17;1.60;;;1.30;;
4963;SDS011;2497;47.410;9.740;2022-11-03T05:03:47;1.30;;;1.20;;
4963;SDS011;2497;47.410;9.740;2022-11-03T05:06:17;1.80;;;1.70;;
4963;SDS011;2497;47.410;9.740;2022-11-03T05:08:47;2.00;;;1.17;;
4963;SDS011;2497;47.410;9.740;2022-11-03T05:11:28;1.40;;;1.27;;
4963;SDS011;2497;47.410;9.740;2022-11-03T05:13:58;1.53;;;1.30;;
4963;SDS011;2497;47.410;9.740;2022-11-03T05:16:29;2.80;;;2.50;;
4963;SDS011;2497;47.410;9.740;2022-11-03T05:18:57;6.57;;;2.03;;
4963;SDS011;2497;47.410;9.740;2022-11-03T05:21:25;2.00;;;1.67;;
4963;SDS011;2497;47.410;9.740;2022-11-03T05:23:55;1.10;;;1.00;;
4963;SDS011;2497;47.410;9.740;2022-11-03T05:26:24;2.30;;;2.10;;
4963;SDS011;2497;47.410;9.740;2022-11-03T05:28:56;1.30;;;1.20;;
4963;SDS011;2497;47.410;9.740;2022-11-03T05:31:26;2.90;;;1.47;;
4963;SDS011;2497;47.410;9.740;2022-11-03T05:33:57;1.53;;;1.43;;
4963;SDS011;2497;47.410;9.740;2022-11-03T05:36:27;1.70;;;1.60;;
4963;SDS011;2497;47.410;9.740;2022-11-03T05:38:57;16.33;;;3.07;;
4963;SDS011;2497;47.410;9.740;2022-11-03T05:41:31;2.00;;;1.80;;
4963;SDS011;2497;47.410;9.740;2022-11-03T05:43:59;1.67;;;1.57;;
4963;SDS011;2497;47.410;9.740;2022-11-03T05:46:31;1.50;;;1.40;;
4963;SDS011;2497;47.410;9.740;2022-11-03T05:49:01;2.70;;;2.50;;
4963;SDS011;2497;47.410;9.740;2022-11-03T05:51:30;1.30;;;1.17;;
4963;SDS011;2497;47.410;9.740;2022-11-03T05:54:00;3.30;;;2.03;;
4963;SDS011;2497;47.410;9.740;2022-11-03T05:56:30;1.83;;;1.27;;
4963;SDS011;2497;47.410;9.740;2022-11-03T05:58:58;3.63;;;2.30;;
4963;SDS011;2497;47.410;9.740;2022-11-03T06:01:28;2.03;;;1.87;;
4963;SDS011;2497;47.410;9.740;2022-11-03T06:03:58;2.30;;;1.33;;
4963;SDS011;2497;47.410;9.740;2022-11-03T06:06:27;2.90;;;2.40;;
4963;SDS011;2497;47.410;9.740;2022-11-03T06:08:58;6.40;;;1.80;;
4963;SDS011;2497;47.410;9.740;2022-11-03T06:11:30;2.50;;;2.30;;
4963;SDS011;2497;47.410;9.740;2022-11-03T06:14:01;3.07;;;2.77;;
4963;SDS011;2497;47.410;9.740;2022-11-03T06:16:41;3.00;;;1.83;;
4963;SDS011;2497;47.410;9.740;2022-11-03T06:19:20;7.80;;;2.73;;
4963;SDS011;2497;47.410;9.740;2022-11-03T06:21:51;9.10;;;3.60;;
4963;SDS011;2497;47.410;9.740;2022-11-03T06:24:21;17.77;;;3.03;;
4963;SDS011;2497;47.410;9.740;2022-11-03T06:26:52;6.53;;;3.67;;
4963;SDS011;2497;47.410;9.740;2022-11-03T06:29:19;6.87;;;2.70;;
4963;SDS011;2497;47.410;9.740;2022-11-03T06:31:49;5.47;;;3.47;;
4963;SDS011;2497;47.410;9.740;2022-11-03T06:34:29;4.63;;;2.60;;
4963;SDS011;2497;47.410;9.740;2022-11-03T06:37:14;7.83;;;2.90;;
4963;SDS011;2497;47.410;9.740;2022-11-03T06:39:47;5.30;;;3.10;;
4963;SDS011;2497;47.410;9.740;2022-11-03T06:42:19;3.33;;;3.00;;
4963;SDS011;2497;47.410;9.740;2022-11-03T06:44:48;5.37;;;2.20;;
4963;SDS011;2497;47.410;9.740;2022-11-03T06:47:21;8.27;;;4.13;;
4963;SDS011;2497;47.410;9.740;2022-11-03T06:49:50;4.17;;;3.40;;
4963;SDS011;2497;47.410;9.740;2022-11-03T06:52:21;7.20;;;3.03;;
4963;SDS011;2497;47.410;9.740;2022-11-03T06:54:54;8.27;;;4.27;;
4963;SDS011;2497;47.410;9.740;2022-11-03T06:57:34;6.50;;;4.60;;
4963;SDS011;2497;47.410;9.740;2022-11-03T07:00:05;8.57;;;4.23;;
4963;SDS011;2497;47.410;9.740;2022-11-03T07:02:56;4.40;;;3.20;;
4963;SDS011;2497;47.410;9.740;2022-11-03T07:05:29;4.13;;;3.30;;
4963;SDS011;2497;47.410;9.740;2022-11-03T07:07:59;11.33;;;5.23;;
4963;SDS011;2497;47.410;9.740;2022-11-03T07:10:30;12.10;;;4.27;;
4963;SDS011;2497;47.410;9.740;2022-11-03T07:12:58;8.27;;;4.40;;
4963;SDS011;2497;47.410;9.740;2022-11-03T07:15:31;7.13;;;4.83;;
4963;SDS011;2497;47.410;9.740;2022-11-03T07:18:03;9.57;;;4.33;;
4963;SDS011;2497;47.410;9.740;2022-11-03T07:20:43;19.10;;;2.77;;
4963;SDS011;2497;47.410;9.740;2022-11-03T07:23:11;2.97;;;2.70;;
4963;SDS011;2497;47.410;9.740;2022-11-03T07:25:48;14.30;;;4.33;;
4963;SDS011;2497;47.410;9.740;2022-11-03T07:28:18;9.27;;;5.90;;
4963;SDS011;2497;47.410;9.740;2022-11-03T07:30:47;7.00;;;2.90;;
4963;SDS011;2497;47.410;9.740;2022-11-03T07:33:17;8.00;;;3.90;;
4963;SDS011;2497;47.410;9.740;2022-11-03T07:35:48;7.70;;;3.93;;
4963;SDS011;2497;47.410;9.740;2022-11-03T07:38:16;7.97;;;3.83;;
4963;SDS011;2497;47.410;9.740;2022-11-03T07:40:45;17.33;;;3.77;;
4963;SDS011;2497;47.410;9.740;2022-11-03T07:43:14;5.67;;;4.27;;
4963;SDS011;2497;47.410;9.740;2022-11-03T07:45:47;10.57;;;4.60;;
4963;SDS011;2497;47.410;9.740;2022-11-03T07:48:20;4.27;;;3.30;;
4963;SDS011;2497;47.410;9.740;2022-11-03T07:50:49;10.33;;;5.93;;
4963;SDS011;2497;47.410;9.740;2022-11-03T07:53:19;4.93;;;4.07;;
4963;SDS011;2497;47.410;9.740;2022-11-03T07:55:50;7.90;;;4.07;;
4963;SDS011;2497;47.410;9.740;2022-11-03T07:58:26;9.50;;;4.13;;
4963;SDS011;2497;47.410;9.740;2022-11-03T08:01:00;6.47;;;4.30;;
4963;SDS011;2497;47.410;9.740;2022-11-03T08:03:43;5.67;;;3.93;;
4963;SDS011;2497;47.410;9.740;2022-11-03T08:06:12;6.37;;;4.53;;
4963;SDS011;2497;47.410;9.740;2022-11-03T08:08:39;8.93;;;4.43;;
4963;SDS011;2497;47.410;9.740;2022-11-03T08:11:07;8.70;;;5.03;;
4963;SDS011;2497;47.410;9.740;2022-11-03T08:13:35;3.93;;;3.43;;
4963;SDS011;2497;47.410;9.740;2022-11-03T08:16:02;8.00;;;3.57;;
4963;SDS011;2497;47.410;9.740;2022-11-03T08:18:30;3.17;;;2.63;;
4963;SDS011;2497;47.410;9.740;2022-11-03T08:20:59;4.07;;;2.27;;
4963;SDS011;2497;47.410;9.740;2022-11-03T08:23:26;10.60;;;4.33;;
4963;SDS011;2497;47.410;9.740;2022-11-03T08:25:54;3.63;;;2.40;;
4963;SDS011;2497;47.410;9.740;2022-11-03T08:28:22;6.10;;;2.53;;
4963;SDS011;2497;47.410;9.740;2022-11-03T08:30:49;3.43;;;2.37;;
4963;SDS011;2497;47.410;9.740;2022-11-03T08:33:17;10.33;;;3.23;;
4963;SDS011;2497;47.410;9.740;2022-11-03T08:35:44;2.40;;;1.80;;
4963;SDS011;2497;47.410;9.740;2022-11-03T08:38:13;7.40;;;3.37;;
4963;SDS011;2497;47.410;9.740;2022-11-03T08:40:41;3.60;;;2.60;;
4963;SDS011;2497;47.410;9.740;2022-11-03T08:43:08;8.10;;;3.83;;
4963;SDS011;2497;47.410;9.740;2022-11-03T08:45:36;7.23;;;3.63;;
4963;SDS011;2497;47.410;9.740;2022-11-03T08:48:03;3.90;;;2.13;;
4963;SDS011;2497;47.410;9.740;2022-11-03T08:50:31;6.40;;;4.13;;
4963;SDS011;2497;47.410;9.740;2022-11-03T08:52:59;7.97;;;4.40;;
4963;SDS011;2497;47.410;9.740;2022-11-03T08:55:28;4.57;;;3.00;;
4963;SDS011;2497;47.410;9.740;2022-11-03T08:57:56;6.37;;;2.67;;
4963;SDS011;2497;47.410;9.740;2022-11-03T09:00:23;8.33;;;4.90;;
4963;SDS011;2497;47.410;9.740;2022-11-03T09:02:51;5.07;;;3.53;;
4963;SDS011;2497;47.410;9.740;2022-11-03T09:05:18;5.43;;;2.93;;
4963;SDS011;2497;47.410;9.740;2022-11-03T09:07:46;5.80;;;3.13;;
4963;SDS011;2497;47.410;9.740;2022-11-03T09:10:13;10.53;;;4.50;;
4963;SDS011;2497;47.410;9.740;2022-11-03T09:12:43;3.20;;;2.53;;
4963;SDS011;2497;47.410;9.740;2022-11-03T09:15:10;3.50;;;2.30;;
4963;SDS011;2497;47.410;9.740;2022-11-03T09:17:38;5.63;;;3.17;;
4963;SDS011;2497;47.410;9.740;2022-11-03T09:20:05;4.63;;;3.00;;
4963;SDS011;2497;47.410;9.740;2022-11-03T09:22:34;5.93;;;3.10;;
4963;SDS011;2497;47.410;9.740;2022-11-03T09:25:01;6.20;;;2.90;;
4963;SDS011;2497;47.410;9.740;2022-11-03T09:27:29;7.13;;;4.20;;
4963;SDS011;2497;47.410;9.740;2022-11-03T09:29:58;5.57;;;2.97;;
4963;SDS011;2497;47.410;9.740;2022-11-03T09:32:25;6.57;;;2.27;;
4963;SDS011;2497;47.410;9.740;2022-11-03T09:34:54;5.63;;;2.67;;
4963;SDS011;2497;47.410;9.740;2022-11-03T09:37:21;5.83;;;2.90;;
4963;SDS011;2497;47.410;9.740;2022-11-03T09:39:49;4.07;;;3.10;;
4963;SDS011;2497;47.410;9.740;2022-11-03T09:42:17;5.70;;;3.80;;
4963;SDS011;2497;47.410;9.740;2022-11-03T09:44:45;4.70;;;2.30;;
4963;SDS011;2497;47.410;9.740;2022-11-03T09:47:18;2.40;;;2.20;;
4963;SDS011;2497;47.410;9.740;2022-11-03T09:49:49;8.63;;;3.33;;
4963;SDS011;2497;47.410;9.740;2022-11-03T09:52:18;5.23;;;2.87;;
4963;SDS011;2497;47.410;9.740;2022-11-03T09:54:47;4.93;;;2.77;;
4963;SDS011;2497;47.410;9.740;2022-11-03T09:57:15;2.80;;;2.33;;
4963;SDS011;2497;47.410;9.740;2022-11-03T09:59:43;7.57;;;4.30;;
4963;SDS011;2497;47.410;9.740;2022-11-03T10:02:15;10.37;;;3.43;;
4963;SDS011;2497;47.410;9.740;2022-11-03T10:04:50;10.63;;;3.67;;
4963;SDS011;2497;47.410;9.740;2022-11-03T10:07:19;6.80;;;3.30;;
4963;SDS011;2497;47.410;9.740;2022-11-03T10:09:47;11.20;;;4.93;;
4963;SDS011;2497;47.410;9.740;2022-11-03T10:12:16;5.97;;;2.83;;
4963;SDS011;2497;47.410;9.740;2022-11-03T10:14:46;7.50;;;3.53;;
4963;SDS011;2497;47.410;9.740;2022-11-03T10:17:15;6.27;;;2.97;;
4963;SDS011;2497;47.410;9.740;2022-11-03T10:19:47;7.33;;;3.30;;
4963;SDS011;2497;47.410;9.740;2022-11-03T10:22:18;5.80;;;3.30;;
4963;SDS011;2497;47.410;9.740;2022-11-03T10:24:46;11.20;;;3.40;;
4963;SDS011;2497;47.410;9.740;2022-11-03T10:27:20;9.57;;;4.00;;
4963;SDS011;2497;47.410;9.740;2022-11-03T10:30:03;6.20;;;2.67;;
4963;SDS011;2497;47.410;9.740;2022-11-03T10:32:32;12.00;;;4.37;;
4963;SDS011;2497;47.410;9.740;2022-11-03T10:35:02;5.33;;;3.50;;
4963;SDS011;2497;47.410;9.740;2022-11-03T10:37:50;8.53;;;3.00;;
4963;SDS011;2497;47.410;9.740;2022-11-03T10:40:32;6.53;;;2.93;;
4963;SDS011;2497;47.410;9.740;2022-11-03T10:43:00;3.30;;;1.83;;
4963;SDS011;2497;47.410;9.740;2022-11-03T10:45:27;3.13;;;2.70;;
4963;SDS011;2497;47.410;9.740;2022-11-03T10:47:58;5.20;;;3.77;;
4963;SDS011;2497;47.410;9.740;2022-11-03T10:50:28;6.20;;;3.23;;
4963;SDS011;2497;47.410;9.740;2022-11-03T10:52:56;4.10;;;2.60;;
4963;SDS011;2497;47.410;9.740;2022-11-03T10:55:24;7.17;;;2.40;;
4963;SDS011;2497;47.410;9.740;2022-11-03T10:57:51;9.10;;;2.87;;
4963;SDS011;2497;47.410;9.740;2022-11-03T11:00:20;5.87;;;3.40;;
4963;SDS011;2497;47.410;9.740;2022-11-03T11:02:48;5.17;;;2.77;;
4963;SDS011;2497;47.410;9.740;2022-11-03T11:05:21;8.13;;;3.50;;
4963;SDS011;2497;47.410;9.740;2022-11-03T11:07:52;5.83;;;3.37;;
4963;SDS011;2497;47.410;9.740;2022-11-03T11:10:21;8.97;;;4.90;;
4963;SDS011;2497;47.410;9.740;2022-11-03T11:13:03;4.47;;;2.97;;
4963;SDS011;2497;47.410;9.740;2022-11-03T11:15:50;10.10;;;4.33;;
4963;SDS011;2497;47.410;9.740;2022-11-03T11:25:01;4.00;;;3.00;;
4963;SDS011;2497;47.410;9.740;2022-11-03T11:33:29;7.70;;;2.97;;
4963;SDS011;2497;47.410;9.740;2022-11-03T11:36:03;5.60;;;3.47;;
4963;SDS011;2497;47.410;9.740;2022-11-03T11:38:53;5.30;;;3.37;;
4963;SDS011;2497;47.410;9.740;2022-11-03T11:47:19;7.83;;;3.70;;
4963;SDS011;2497;47.410;9.740;2022-11-03T11:53:10;8.80;;;4.53;;
4963;SDS011;2497;47.410;9.740;2022-11-03T11:55:41;8.60;;;2.90;;
4963;SDS011;2497;47.410;9.740;2022-11-03T11:58:13;13.87;;;5.43;;
4963;SDS011;2497;47.410;9.740;2022-11-03T12:03:46;8.53;;;3.63;;
4963;SDS011;2497;47.410;9.740;2022-11-03T12:06:15;5.40;;;3.30;;
4963;SDS011;2497;47.410;9.740;2022-11-03T12:08:42;8.50;;;3.33;;
4963;SDS011;2497;47.410;9.740;2022-11-03T12:11:10;8.73;;;3.77;;
4963;SDS011;2497;47.410;9.740;2022-11-03T12:13:42;10.37;;;3.10;;
4963;SDS011;2497;47.410;9.740;2022-11-03T12:16:32;6.77;;;4.13;;
4963;SDS011;2497;47.410;9.740;2022-11-03T12:22:01;6.40;;;3.30;;
4963;SDS011;2497;47.410;9.740;2022-11-03T12:24:36;5.60;;;3.60;;
4963;SDS011;2497;47.410;9.740;2022-11-03T12:27:16;8.10;;;3.87;;
4963;SDS011;2497;47.410;9.740;2022-11-03T12:29:46;8.53;;;3.67;;
4963;SDS011;2497;47.410;9.740;2022-11-03T12:32:15;7.70;;;3.20;;
4963;SDS011;2497;47.410;9.740;2022-11-03T12:34:43;5.00;;;2.90;;
4963;SDS011;2497;47.410;9.740;2022-11-03T12:37:10;5.47;;;2.97;;
4963;SDS011;2497;47.410;9.740;2022-11-03T12:39:37;5.30;;;3.80;;
4963;SDS011;2497;47.410;9.740;2022-11-03T12:42:05;11.67;;;3.37;;
4963;SDS011;2497;47.410;9.740;2022-11-03T12:44:33;12.20;;;4.57;;
4963;SDS011;2497;47.410;9.740;2022-11-03T12:47:00;6.10;;;3.70;;
4963;SDS011;2497;47.410;9.740;2022-11-03T12:49:29;4.83;;;3.10;;
4963;SDS011;2497;47.410;9.740;2022-11-03T12:51:57;7.20;;;3.93;;
4963;SDS011;2497;47.410;9.740;2022-11-03T12:54:31;11.70;;;3.97;;
4963;SDS011;2497;47.410;9.740;2022-11-03T12:56:59;6.40;;;4.10;;
4963;SDS011;2497;47.410;9.740;2022-11-03T12:59:27;4.80;;;3.13;;
4963;SDS011;2497;47.410;9.740;2022-11-03T13:01:54;5.83;;;3.13;;
4963;SDS011;2497;47.410;9.740;2022-11-03T13:04:22;8.43;;;4.23;;
4963;SDS011;2497;47.410;9.740;2022-11-03T13:06:51;6.67;;;3.87;;
4963;SDS011;2497;47.410;9.740;2022-11-03T13:09:19;5.90;;;4.70;;
4963;SDS011;2497;47.410;9.740;2022-11-03T13:11:46;8.23;;;3.97;;
4963;SDS011;2497;47.410;9.740;2022-11-03T13:14:31;7.63;;;4.20;;
4963;SDS011;2497;47.410;9.740;2022-11-03T13:16:59;7.83;;;3.97;;
4963;SDS011;2497;47.410;9.740;2022-11-03T13:19:27;6.53;;;3.60;;
4963;SDS011;2497;47.410;9.740;2022-11-03T13:21:56;7.03;;;4.23;;
4963;SDS011;2497;47.410;9.740;2022-11-03T13:24:24;10.33;;;3.63;;
4963;SDS011;2497;47.410;9.740;2022-11-03T13:26:52;11.17;;;4.63;;
4963;SDS011;2497;47.410;9.740;2022-11-03T13:29:19;8.10;;;4.63;;
4963;SDS011;2497;47.410;9.740;2022-11-03T13:31:47;8.83;;;4.73;;
4963;SDS011;2497;47.410;9.740;2022-11-03T13:34:14;7.40;;;3.80;;
4963;SDS011;2497;47.410;9.740;2022-11-03T13:36:41;7.10;;;3.87;;
4963;SDS011;2497;47.410;9.740;2022-11-03T13:39:11;7.13;;;4.10;;
4963;SDS011;2497;47.410;9.740;2022-11-03T13:41:38;8.23;;;3.50;;
4963;SDS011;2497;47.410;9.740;2022-11-03T13:44:06;10.77;;;5.23;;
4963;SDS011;2497;47.410;9.740;2022-11-03T13:46:34;12.90;;;6.83;;
4963;SDS011;2497;47.410;9.740;2022-11-03T13:49:01;6.93;;;3.67;;
4963;SDS011;2497;47.410;9.740;2022-11-03T13:51:28;9.83;;;4.83;;
4963;SDS011;2497;47.410;9.740;2022-11-03T13:53:56;17.33;;;4.97;;
4963;SDS011;2497;47.410;9.740;2022-11-03T13:56:25;10.30;;;4.53;;
4963;SDS011;2497;47.410;9.740;2022-11-03T13:58:52;8.00;;;4.53;;
4963;SDS011;2497;47.410;9.740;2022-11-03T14:01:20;6.00;;;4.13;;
4963;SDS011;2497;47.410;9.740;2022-11-03T14:03:47;6.13;;;3.27;;
4963;SDS011;2497;47.410;9.740;2022-11-03T14:06:15;6.77;;;3.23;;
4963;SDS011;2497;47.410;9.740;2022-11-03T14:08:42;13.67;;;5.33;;
4963;SDS011;2497;47.410;9.740;2022-11-03T14:11:10;7.50;;;4.20;;
4963;SDS011;2497;47.410;9.740;2022-11-03T14:13:57;5.90;;;3.37;;
4963;SDS011;2497;47.410;9.740;2022-11-03T14:16:24;16.83;;;4.50;;
4963;SDS011;2497;47.410;9.740;2022-11-03T14:18:52;11.47;;;4.70;;
4963;SDS011;2497;47.410;9.740;2022-11-03T14:21:19;5.80;;;3.60;;
4963;SDS011;2497;47.410;9.740;2022-11-03T14:23:46;6.17;;;4.10;;
4963;SDS011;2497;47.410;9.740;2022-11-03T14:26:14;8.47;;;4.10;;
4963;SDS011;2497;47.410;9.740;2022-11-03T14:28:42;8.07;;;4.90;;
4963;SDS011;2497;47.410;9.740;2022-11-03T14:31:11;7.13;;;4.17;;
4963;SDS011;2497;47.410;9.740;2022-11-03T14:33:38;5.67;;;3.80;;
4963;SDS011;2497;47.410;9.740;2022-11-03T14:36:05;12.77;;;4.93;;
4963;SDS011;2497;47.410;9.740;2022-11-03T14:38:33;10.50;;;4.40;;
4963;SDS011;2497;47.410;9.740;2022-11-03T14:41:01;9.10;;;5.17;;
4963;SDS011;2497;47.410;9.740;2022-11-03T14:43:42;8.17;;;5.00;;
4963;SDS011;2497;47.410;9.740;2022-11-03T14:46:11;15.83;;;4.23;;
4963;SDS011;2497;47.410;9.740;2022-11-03T14:48:39;7.90;;;4.60;;
4963;SDS011;2497;47.410;9.740;2022-11-03T14:51:06;6.93;;;4.23;;
4963;SDS011;2497;47.410;9.740;2022-11-03T14:53:34;5.77;;;4.70;;
4963;SDS011;2497;47.410;9.740;2022-11-03T14:56:01;8.30;;;4.30;;
4963;SDS011;2497;47.410;9.740;2022-11-03T14:58:29;13.73;;;5.90;;
4963;SDS011;2497;47.410;9.740;2022-11-03T15:00:56;5.97;;;3.70;;
4963;SDS011;2497;47.410;9.740;2022-11-03T15:03:25;8.20;;;5.50;;
4963;SDS011;2497;47.410;9.740;2022-11-03T15:05:52;8.37;;;4.40;;
4963;SDS011;2497;47.410;9.740;2022-11-03T15:08:20;8.10;;;4.50;;
4963;SDS011;2497;47.410;9.740;2022-11-03T15:10:48;11.03;;;6.03;;
4963;SDS011;2497;47.410;9.740;2022-11-03T15:13:16;12.33;;;3.50;;
4963;SDS011;2497;47.410;9.740;2022-11-03T15:15:44;10.83;;;4.67;;
4963;SDS011;2497;47.410;9.740;2022-11-03T15:18:11;7.80;;;6.10;;
4963;SDS011;2497;47.410;9.740;2022-11-03T15:20:41;10.50;;;5.13;;
4963;SDS011;2497;47.410;9.740;2022-11-03T15:23:10;15.00;;;7.23;;
4963;SDS011;2497;47.410;9.740;2022-11-03T15:25:40;9.90;;;4.37;;
4963;SDS011;2497;47.410;9.740;2022-11-03T15:28:08;8.67;;;4.00;;
4963;SDS011;2497;47.410;9.740;2022-11-03T15:30:35;7.53;;;3.93;;
4963;SDS011;2497;47.410;9.740;2022-11-03T15:33:03;15.00;;;5.97;;
4963;SDS011;2497;47.410;9.740;2022-11-03T15:35:31;7.50;;;4.47;;
4963;SDS011;2497;47.410;9.740;2022-11-03T15:38:00;10.13;;;4.20;;
4963;SDS011;2497;47.410;9.740;2022-11-03T15:40:27;11.20;;;6.00;;
4963;SDS011;2497;47.410;9.740;2022-11-03T15:42:55;7.87;;;5.43;;
4963;SDS011;2497;47.410;9.740;2022-11-03T15:45:22;6.63;;;3.33;;
4963;SDS011;2497;47.410;9.740;2022-11-03T15:47:50;7.77;;;3.20;;
4963;SDS011;2497;47.410;9.740;2022-11-03T15:50:17;7.90;;;3.23;;
4963;SDS011;2497;47.410;9.740;2022-11-03T15:52:45;7.43;;;2.80;;
4963;SDS011;2497;47.410;9.740;2022-11-03T15:55:14;7.17;;;4.00;;
4963;SDS011;2497;47.410;9.740;2022-11-03T15:57:42;8.03;;;4.53;;
4963;SDS011;2497;47.410;9.740;2022-11-03T16:00:10;6.83;;;4.27;;